Time;durP1;ratioP1;P1;durP2;ratioP2;P2;SDS_P1;SDS_P2;PMS_P1;PMS_P2;Temp;Humidity;BMP_temperature;BMP_pressure;BME280_temperature;BME280_humidity;BME280_pressure;Samples;Min_cycle;Max_cycle;Signal;HPM_P1;HPM_P2
2022/06/10 00:02:07;;;;;;;11.23;2.40;;;;;;;-142.64;100.00;58178.75;5051987;28;20116;-60
2022/06/10 00:04:33;;;;;;;10.07;2.17;;;;;;;-142.64;100.00;58178.75;5052010;28;20069;-62
2022/06/10 00:06:59;;;;;;;6.85;2.17;;;;;;;-142.64;100.00;58178.75;5051868;28;20044;-63
2022/06/10 00:09:24;;;;;;;12.25;3.63;;;;;;;-142.64;100.00;58178.75;5051604;28;20049;-61
2022/06/10 00:11:49;;;;;;;6.82;1.95;;;;;;;-142.64;100.00;58178.75;5052164;28;20041;-59
2022/06/10 00:14:15;;;;;;;7.55;2.10;;;;;;;-142.64;100.00;58178.75;5051708;28;20055;-60
2022/06/10 00:16:40;;;;;;;9.98;2.05;;;;;;;-142.64;100.00;58178.75;5034253;28;20176;-61
2022/06/10 00:19:05;;;;;;;7.20;2.10;;;;;;;-142.64;100.00;58178.75;5050580;28;20064;-62
2022/06/10 00:21:31;;;;;;;12.02;2.65;;;;;;;-142.64;100.00;58178.75;5050652;28;20025;-61
2022/06/10 00:23:56;;;;;;;11.32;3.17;;;;;;;-142.64;100.00;58178.75;5050498;28;20104;-61
2022/06/10 00:26:22;;;;;;;6.03;2.15;;;;;;;-142.64;100.00;58178.75;5052001;28;20500;-63
2022/06/10 00:28:48;;;;;;;8.60;1.83;;;;;;;-142.64;100.00;58178.75;5051823;28;20082;-62
2022/06/10 00:31:14;;;;;;;9.77;1.95;;;;;;;-142.64;100.00;58178.75;5053215;28;20483;-61
2022/06/10 00:33:40;;;;;;;6.25;1.80;;;;;;;-142.64;100.00;58178.75;5054564;28;20032;-64
2022/06/10 00:36:07;;;;;;;5.47;1.65;;;;;;;-142.64;100.00;58178.75;5054433;28;20033;-61
2022/06/10 00:38:32;;;;;;;10.57;2.42;;;;;;;-142.64;100.00;58178.75;5055392;28;20074;-63
2022/06/10 00:40:58;;;;;;;9.18;2.10;;;;;;;-142.64;100.00;58178.75;5055745;28;20059;-62
2022/06/10 00:43:27;;;;;;;8.40;2.75;;;;;;;-142.64;100.00;58178.75;5054362;28;20041;-63
2022/06/10 00:46:01;;;;;;;9.55;2.55;;;;;;;-142.64;100.00;58178.75;5055235;28;20426;-63
2022/06/10 00:48:28;;;;;;;9.95;2.42;;;;;;;-142.64;100.00;58178.75;5055062;28;20087;-61
2022/06/10 00:50:55;;;;;;;8.02;2.03;;;;;;;-142.64;100.00;58178.75;5053971;28;20036;-60
2022/06/10 00:53:25;;;;;;;7.45;1.92;;;;;;;-142.64;100.00;58178.75;5053775;28;20033;-60
2022/06/10 00:55:54;;;;;;;10.65;2.33;;;;;;;-142.64;100.00;58178.75;5055308;28;20419;-61
2022/06/10 00:58:24;;;;;;;11.30;2.40;;;;;;;-142.64;100.00;58178.75;5053802;28;20033;-61
2022/06/10 01:00:50;;;;;;;6.00;1.73;;;;;;;-142.64;100.00;58178.75;5054022;28;20036;-61
2022/06/10 01:03:16;;;;;;;12.77;2.33;;;;;;;-142.64;100.00;58178.75;5054978;28;20045;-65
2022/06/10 01:05:41;;;;;;;9.82;2.33;;;;;;;-142.64;100.00;58178.75;5053595;28;20044;-61
2022/06/10 01:08:15;;;;;;;7.82;1.95;;;;;;;-142.64;100.00;58178.75;5054793;28;20056;-60
2022/06/10 01:11:05;;;;;;;7.03;2.42;;;;;;;-142.64;100.00;58178.75;5053680;28;20126;-61
2022/06/10 01:13:33;;;;;;;8.50;1.80;;;;;;;-142.64;100.00;58178.75;5053676;28;20044;-62
2022/06/10 01:16:13;;;;;;;5.30;2.05;;;;;;;-142.64;100.00;58178.75;5054811;28;20033;-63
2022/06/10 01:18:56;;;;;;;7.75;2.17;;;;;;;-142.64;100.00;58178.75;5053538;28;20089;-60
2022/06/10 01:21:40;;;;;;;7.57;1.88;;;;;;;-142.64;100.00;58178.75;5053649;28;20033;-60
2022/06/10 01:24:11;;;;;;;8.82;2.10;;;;;;;-142.64;100.00;58178.75;5054722;28;20067;-63
2022/06/10 01:30:03;;;;;;;7.53;2.20;;;;;;;-142.64;100.00;58178.75;5053769;28;20039;-61
2022/06/10 01:32:36;;;;;;;6.88;2.35;;;;;;;-142.64;100.00;58178.75;5053230;28;20033;-60
2022/06/10 01:35:13;;;;;;;7.82;2.35;;;;;;;-142.64;100.00;58178.75;5054311;28;20427;-64
2022/06/10 01:37:52;;;;;;;6.78;1.85;;;;;;;-142.64;100.00;58178.75;5054414;28;20039;-62
2022/06/10 01:40:27;;;;;;;9.32;2.45;;;;;;;-142.64;100.00;58178.75;5054455;28;20033;-60
2022/06/10 01:43:05;;;;;;;9.07;2.60;;;;;;;-142.64;100.00;58178.75;5053117;28;20075;-62
2022/06/10 01:45:39;;;;;;;8.10;2.00;;;;;;;-142.64;100.00;58178.75;5053332;28;20037;-61
2022/06/10 01:48:08;;;;;;;6.07;1.77;;;;;;;-142.64;100.00;58178.75;5053195;28;20029;-62
2022/06/10 01:50:51;;;;;;;9.40;2.03;;;;;;;-142.64;100.00;58178.75;5052767;28;20037;-60
2022/06/10 01:53:30;;;;;;;6.80;2.10;;;;;;;-142.64;100.00;58178.75;5052864;28;20028;-59
2022/06/10 01:56:04;;;;;;;6.90;2.60;;;;;;;-142.64;100.00;58178.75;5052918;28;20448;-61
2022/06/10 01:58:38;;;;;;;9.57;2.05;;;;;;;-142.64;100.00;58178.75;5052853;28;20058;-61
2022/06/10 02:01:16;;;;;;;14.27;2.63;;;;;;;-142.64;100.00;58178.75;5052653;28;20060;-62
2022/06/10 02:03:47;;;;;;;8.32;2.10;;;;;;;-142.64;100.00;58178.75;5035976;28;20055;-63
2022/06/10 02:06:17;;;;;;;10.20;2.45;;;;;;;-142.64;100.00;58178.75;5052560;28;20035;-60
2022/06/10 02:08:47;;;;;;;7.78;2.00;;;;;;;-142.64;100.00;58178.75;5053512;28;20057;-61
2022/06/10 02:11:15;;;;;;;6.13;2.63;;;;;;;-142.64;100.00;58178.75;5053804;28;20492;-60
2022/06/10 02:13:52;;;;;;;11.35;2.55;;;;;;;-142.64;100.00;58178.75;5052526;28;20045;-62
2022/06/10 02:16:20;;;;;;;8.45;2.40;;;;;;;-142.64;100.00;58178.75;5051540;28;20025;-61
2022/06/10 02:19:08;;;;;;;12.30;2.58;;;;;;;-142.64;100.00;58178.75;5052089;28;20037;-60
2022/06/10 02:21:45;;;;;;;6.55;2.20;;;;;;;-142.64;100.00;58178.75;5052119;28;20111;-60
2022/06/10 02:24:24;;;;;;;8.40;2.03;;;;;;;-142.64;100.00;58178.75;5052606;28;20075;-61
2022/06/10 02:26:50;;;;;;;10.13;2.40;;;;;;;-142.64;100.00;58178.75;5053263;28;20021;-64
2022/06/10 02:29:24;;;;;;;10.13;2.00;;;;;;;-142.64;100.00;58178.75;5052200;28;20108;-61
2022/06/10 02:31:56;;;;;;;8.73;2.05;;;;;;;-142.64;100.00;58178.75;5052201;28;20025;-63
2022/06/10 02:34:22;;;;;;;4.88;1.58;;;;;;;-142.64;100.00;58178.75;5052140;28;20017;-62
2022/06/10 02:36:59;;;;;;;10.10;2.08;;;;;;;-142.64;100.00;58178.75;5053061;28;20442;-60
2022/06/10 02:39:31;;;;;;;8.95;2.47;;;;;;;-142.64;100.00;58178.75;5052092;28;20064;-61
2022/06/10 02:42:21;;;;;;;10.02;2.03;;;;;;;-142.64;100.00;58178.75;5051905;28;20029;-60
2022/06/10 02:45:18;;;;;;;9.15;2.20;;;;;;;-142.64;100.00;58178.75;5053275;28;20086;-62
2022/06/10 02:47:48;;;;;;;9.82;3.03;;;;;;;-142.64;100.00;58178.75;5051665;28;20025;-61
2022/06/10 02:50:15;;;;;;;11.10;2.45;;;;;;;-142.64;100.00;58178.75;5051719;28;20029;-62
2022/06/10 02:52:41;;;;;;;7.82;1.95;;;;;;;-142.64;100.00;58178.75;5051337;28;20407;-63
2022/06/10 02:55:13;;;;;;;6.38;2.15;;;;;;;-142.64;100.00;58178.75;5053091;28;20095;-59
2022/06/10 03:03:12;;;;;;;8.05;2.40;;;;;;;-142.64;100.00;58178.75;5053046;28;20052;-59
2022/06/10 03:06:17;;;;;;;7.30;1.98;;;;;;;-142.64;100.00;58178.75;5052707;28;20033;-62
2022/06/10 03:08:47;;;;;;;6.80;1.60;;;;;;;-142.64;100.00;58178.75;5050581;28;20053;-62
2022/06/10 03:11:15;;;;;;;12.68;2.42;;;;;;;-142.64;100.00;58178.75;5051591;28;20131;-61
2022/06/10 03:14:12;;;;;;;5.72;1.73;;;;;;;-142.64;100.00;58178.75;5051474;28;20024;-64
2022/06/10 03:16:56;;;;;;;8.63;2.67;;;;;;;-142.64;100.00;58178.75;5052554;28;20033;-61
2022/06/10 03:19:31;;;;;;;8.77;2.63;;;;;;;-142.64;100.00;58178.75;5052805;28;20036;-60
2022/06/10 03:22:25;;;;;;;6.55;2.33;;;;;;;-142.64;100.00;58178.75;5052520;28;20032;-61
2022/06/10 03:25:16;;;;;;;9.00;2.28;;;;;;;-142.64;100.00;58178.75;5051119;28;20040;-64
2022/06/10 03:28:10;;;;;;;8.57;2.13;;;;;;;-142.64;100.00;58178.75;5051376;28;20033;-61
2022/06/10 03:30:40;;;;;;;8.07;2.33;;;;;;;-142.64;100.00;58178.75;5051138;28;20041;-61
2022/06/10 03:33:08;;;;;;;9.93;2.42;;;;;;;-142.64;100.00;58178.75;5051217;28;20044;-61
2022/06/10 03:35:42;;;;;;;7.05;2.63;;;;;;;-142.64;100.00;58178.75;5052248;28;20029;-64
2022/06/10 03:38:09;;;;;;;9.27;2.90;;;;;;;-142.64;100.00;58178.75;5051117;28;20124;-61
2022/06/10 03:40:34;;;;;;;7.63;2.60;;;;;;;-142.64;100.00;58178.75;5052685;28;20045;-62
2022/06/10 03:43:04;;;;;;;9.70;2.60;;;;;;;-142.64;100.00;58178.75;5050952;28;20484;-64
2022/06/10 03:45:39;;;;;;;5.38;2.60;;;;;;;-142.64;100.00;58178.75;5051911;28;20033;-64
2022/06/10 03:48:04;;;;;;;7.65;2.55;;;;;;;-142.64;100.00;58178.75;5051583;28;20119;-62
2022/06/10 03:50:36;;;;;;;10.80;2.90;;;;;;;-142.64;100.00;58178.75;5052244;28;20072;-62
2022/06/10 03:53:02;;;;;;;8.23;2.53;;;;;;;-142.64;100.00;58178.75;5051087;28;20033;-62
2022/06/10 03:55:28;;;;;;;8.43;2.72;;;;;;;-142.64;100.00;58178.75;5051074;28;20033;-62
2022/06/10 03:57:53;;;;;;;6.93;2.15;;;;;;;-142.64;100.00;58178.75;5050871;28;20032;-61
2022/06/10 04:00:22;;;;;;;11.98;2.88;;;;;;;-142.64;100.00;58178.75;5051566;28;20033;-62
2022/06/10 04:02:47;;;;;;;7.78;2.45;;;;;;;-142.64;100.00;58178.75;5051531;28;20029;-62
2022/06/10 04:05:13;;;;;;;11.13;3.35;;;;;;;-142.64;100.00;58178.75;5051736;28;20033;-62
2022/06/10 04:07:39;;;;;;;13.90;3.60;;;;;;;-142.64;100.00;58178.75;5037940;28;20053;-64
2022/06/10 04:10:06;;;;;;;6.93;2.45;;;;;;;-142.64;100.00;58178.75;5055899;28;20040;-62
2022/06/10 04:12:31;;;;;;;10.23;3.60;;;;;;;-142.64;100.00;58178.75;5038200;28;20462;-64
2022/06/10 04:14:56;;;;;;;15.75;3.00;;;;;;;-142.64;100.00;58178.75;5055845;28;20120;-61
2022/06/10 04:17:22;;;;;;;7.15;2.90;;;;;;;-142.64;100.00;58178.75;5055827;28;20430;-61
2022/06/10 04:19:47;;;;;;;6.93;2.53;;;;;;;-142.64;100.00;58178.75;5056006;28;20043;-61
2022/06/10 04:22:12;;;;;;;14.45;3.00;;;;;;;-142.64;100.00;58178.75;5055983;28;20029;-61
2022/06/10 04:24:38;;;;;;;8.95;3.50;;;;;;;-142.64;100.00;58178.75;5054372;28;20079;-60
2022/06/10 04:27:03;;;;;;;10.15;2.92;;;;;;;-142.64;100.00;58178.75;5055627;28;20053;-63
2022/06/10 04:29:29;;;;;;;13.70;3.38;;;;;;;-142.64;100.00;58178.75;5054501;28;20037;-63
2022/06/10 04:31:55;;;;;;;9.27;3.15;;;;;;;-142.64;100.00;58178.75;5055480;28;20504;-62
2022/06/10 04:34:20;;;;;;;11.88;3.30;;;;;;;-142.64;100.00;58178.75;5055724;28;20040;-63
2022/06/10 04:36:46;;;;;;;8.88;3.28;;;;;;;-142.64;100.00;58178.75;5055518;28;20043;-59
2022/06/10 04:39:11;;;;;;;10.05;3.38;;;;;;;-142.64;100.00;58178.75;5054313;28;20037;-61
2022/06/10 04:41:37;;;;;;;10.05;3.35;;;;;;;-142.64;100.00;58178.75;5054044;28;20029;-61
2022/06/10 04:44:03;;;;;;;10.02;3.10;;;;;;;-142.64;100.00;58178.75;5055414;28;20082;-61
2022/06/10 04:46:32;;;;;;;8.73;3.30;;;;;;;-142.64;100.00;58178.75;5054107;28;20033;-62
2022/06/10 04:48:59;;;;;;;9.85;2.83;;;;;;;-142.64;100.00;58178.75;5055368;28;20098;-62
2022/06/10 04:51:24;;;;;;;10.13;3.50;;;;;;;-142.64;100.00;58178.75;5055697;28;20039;-62
2022/06/10 04:53:50;;;;;;;10.18;3.00;;;;;;;-142.64;100.00;58178.75;5054106;28;20033;-63
2022/06/10 04:56:15;;;;;;;11.73;3.17;;;;;;;-142.64;100.00;58178.75;5054877;28;20037;-61
2022/06/10 04:58:40;;;;;;;10.57;3.03;;;;;;;-142.64;100.00;58178.75;5053806;28;20040;-63
2022/06/10 05:01:06;;;;;;;7.55;3.67;;;;;;;-142.64;100.00;58178.75;5054822;28;20037;-60
2022/06/10 05:03:32;;;;;;;9.63;2.92;;;;;;;-142.64;100.00;58178.75;5055309;28;20095;-60
2022/06/10 05:05:57;;;;;;;11.35;3.30;;;;;;;-142.64;100.00;58178.75;5053493;28;20112;-61
2022/06/10 05:08:22;;;;;;;12.25;3.92;;;;;;;-142.64;100.00;58178.75;5054109;28;20052;-62
2022/06/10 05:10:48;;;;;;;6.50;3.05;;;;;;;-142.64;100.00;58178.75;5052394;28;20045;-60
2022/06/10 05:13:16;;;;;;;8.68;3.30;;;;;;;-142.64;100.00;58178.75;5053341;28;20142;-62
2022/06/10 05:15:42;;;;;;;9.77;3.25;;;;;;;-142.64;100.00;58178.75;5053150;28;20037;-61
2022/06/10 05:18:07;;;;;;;11.73;3.22;;;;;;;-142.64;100.00;58178.75;5053346;28;20549;-63
2022/06/10 05:20:36;;;;;;;7.88;2.40;;;;;;;-142.64;100.00;58178.75;5053768;28;20041;-64
2022/06/10 05:23:03;;;;;;;7.28;2.47;;;;;;;-142.64;100.00;58178.75;5053561;28;20033;-60
2022/06/10 05:25:29;;;;;;;15.02;3.17;;;;;;;-142.64;100.00;58178.75;5053590;28;20510;-61
2022/06/10 05:27:54;;;;;;;10.48;2.85;;;;;;;-142.64;100.00;58178.75;5051862;28;20029;-61
2022/06/10 05:30:23;;;;;;;6.63;2.30;;;;;;;-142.64;100.00;58178.75;5052180;28;20040;-60
2022/06/10 05:32:48;;;;;;;7.07;2.78;;;;;;;-142.64;100.00;58178.75;5053005;28;20391;-62
2022/06/10 05:35:14;;;;;;;11.35;2.85;;;;;;;-142.64;100.00;58178.75;5053002;28;20037;-60
2022/06/10 05:37:41;;;;;;;10.32;2.78;;;;;;;-142.64;100.00;58178.75;5053447;28;20029;-60
2022/06/10 05:40:07;;;;;;;9.52;2.70;;;;;;;-142.64;100.00;58178.75;5051840;28;20039;-61
2022/06/10 05:42:32;;;;;;;9.70;2.83;;;;;;;-142.64;100.00;58178.75;5052030;28;20047;-63
2022/06/10 05:44:57;;;;;;;6.57;2.67;;;;;;;-142.64;100.00;58178.75;5053103;28;20033;-61
2022/06/10 05:47:25;;;;;;;10.63;2.70;;;;;;;-142.64;100.00;58178.75;5051863;28;20064;-61
2022/06/10 05:49:54;;;;;;;10.82;2.72;;;;;;;-142.64;100.00;58178.75;5052961;28;20029;-60
2022/06/10 05:52:22;;;;;;;10.55;2.67;;;;;;;-142.64;100.00;58178.75;5053054;28;20037;-60
2022/06/10 05:54:49;;;;;;;7.90;2.33;;;;;;;-142.64;100.00;58178.75;5052973;28;20035;-61
2022/06/10 05:57:15;;;;;;;10.27;2.10;;;;;;;-142.64;100.00;58178.75;5052800;28;20033;-61
2022/06/10 05:59:41;;;;;;;8.73;2.75;;;;;;;-142.64;100.00;58178.75;5051651;28;20052;-62
2022/06/10 06:02:08;;;;;;;7.63;2.25;;;;;;;-142.64;100.00;58178.75;5051764;28;20029;-61
2022/06/10 06:04:34;;;;;;;7.40;2.65;;;;;;;-142.64;100.00;58178.75;5051895;28;20032;-61
2022/06/10 06:06:59;;;;;;;7.32;2.30;;;;;;;-142.64;100.00;58178.75;5051475;28;20186;-60
2022/06/10 06:09:26;;;;;;;9.35;2.60;;;;;;;-142.64;100.00;58178.75;5015026;28;1102861;-63
2022/06/10 06:11:54;;;;;;;13.05;2.28;;;;;;;-142.64;100.00;58178.75;5052423;28;20036;-60
2022/06/10 06:14:20;;;;;;;13.80;2.67;;;;;;;-142.64;100.00;58178.75;5052305;28;20025;-62
2022/06/10 06:16:50;;;;;;;7.47;2.85;;;;;;;-142.64;100.00;58178.75;5036006;28;20032;-60
2022/06/10 06:19:15;;;;;;;6.13;2.00;;;;;;;-142.64;100.00;58178.75;5053775;28;20543;-62
2022/06/10 06:21:41;;;;;;;8.65;2.20;;;;;;;-142.64;100.00;58178.75;5052026;28;20111;-61
2022/06/10 06:24:06;;;;;;;6.95;2.22;;;;;;;-142.64;100.00;58178.75;5051329;28;20037;-61
2022/06/10 06:26:32;;;;;;;8.38;2.40;;;;;;;-142.64;100.00;58178.75;5053104;28;20040;-60
2022/06/10 06:28:57;;;;;;;7.88;2.78;;;;;;;-142.64;100.00;58178.75;5050834;28;20120;-63
2022/06/10 06:31:22;;;;;;;8.65;3.33;;;;;;;-142.64;100.00;58178.75;5053064;28;20446;-62
2022/06/10 06:33:48;;;;;;;12.38;2.47;;;;;;;-142.64;100.00;58178.75;5035320;28;20037;-62
2022/06/10 06:36:20;;;;;;;7.28;2.53;;;;;;;-142.64;100.00;58178.75;5053615;28;20476;-60
2022/06/10 06:38:45;;;;;;;5.65;2.08;;;;;;;-142.64;100.00;58178.75;5051898;28;20173;-62
2022/06/10 06:41:11;;;;;;;9.43;2.95;;;;;;;-142.64;100.00;58178.75;5051989;28;20033;-64
2022/06/10 06:43:37;;;;;;;7.53;2.63;;;;;;;-142.64;100.00;58178.75;5052213;28;20033;-61
2022/06/10 06:46:03;;;;;;;10.15;2.20;;;;;;;-142.64;100.00;58178.75;5053190;28;20121;-61
2022/06/10 06:48:28;;;;;;;10.20;3.20;;;;;;;-142.64;100.00;58178.75;5051743;28;20561;-60
2022/06/10 06:50:53;;;;;;;10.57;2.88;;;;;;;-142.64;100.00;58178.75;5035099;28;20039;-61
2022/06/10 06:53:19;;;;;;;8.32;2.53;;;;;;;-142.64;100.00;58178.75;5051609;28;20087;-63
2022/06/10 06:55:44;;;;;;;12.38;3.05;;;;;;;-142.64;100.00;58178.75;5053187;28;20148;-62
2022/06/10 06:58:14;;;;;;;8.98;1.98;;;;;;;-142.64;100.00;58178.75;5051926;28;20041;-61
2022/06/10 07:00:39;;;;;;;8.68;2.22;;;;;;;-142.64;100.00;58178.75;5053011;28;20029;-63
2022/06/10 07:03:05;;;;;;;5.30;2.15;;;;;;;-142.64;100.00;58178.75;5051651;28;20443;-64
2022/06/10 07:05:31;;;;;;;7.93;2.50;;;;;;;-142.64;100.00;58178.75;5052696;28;20025;-61
2022/06/10 07:07:57;;;;;;;10.70;2.60;;;;;;;-142.64;100.00;58178.75;5052508;28;20110;-61
2022/06/10 07:10:23;;;;;;;7.15;2.83;;;;;;;-142.64;100.00;58178.75;5051322;28;20037;-63
2022/06/10 07:12:48;;;;;;;7.90;2.35;;;;;;;-142.64;100.00;58178.75;5051495;28;20487;-60
2022/06/10 07:15:14;;;;;;;5.30;2.47;;;;;;;-142.64;100.00;58178.75;5052759;28;20115;-60
2022/06/10 07:17:39;;;;;;;10.98;2.80;;;;;;;-142.64;100.00;58178.75;5052593;28;20483;-60
2022/06/10 07:20:06;;;;;;;8.10;2.60;;;;;;;-142.64;100.00;58178.75;5052567;28;20037;-62
2022/06/10 07:22:32;;;;;;;7.60;2.42;;;;;;;-142.64;100.00;58178.75;5052368;28;20480;-60
2022/06/10 07:24:57;;;;;;;10.98;2.45;;;;;;;-142.64;100.00;58178.75;5053033;28;20044;-63
2022/06/10 07:27:22;;;;;;;7.65;2.53;;;;;;;-142.64;100.00;58178.75;5052548;28;20037;-59
2022/06/10 07:29:48;;;;;;;11.60;2.45;;;;;;;-142.64;100.00;58178.75;5052541;28;20048;-62
2022/06/10 07:32:14;;;;;;;11.65;2.75;;;;;;;-142.64;100.00;58178.75;5052328;28;20033;-60
2022/06/10 07:34:39;;;;;;;7.82;2.58;;;;;;;-142.64;100.00;58178.75;5052500;28;20399;-60
2022/06/10 07:37:05;;;;;;;5.90;2.17;;;;;;;-142.64;100.00;58178.75;5052177;28;20268;-65
2022/06/10 07:39:32;;;;;;;9.27;2.70;;;;;;;-142.64;100.00;58178.75;5052118;28;20037;-62
2022/06/10 07:42:00;;;;;;;9.68;2.50;;;;;;;-142.64;100.00;58178.75;5050874;28;20021;-60
2022/06/10 07:44:26;;;;;;;8.88;2.10;;;;;;;-142.64;100.00;58178.75;5052307;28;20098;-62
2022/06/10 07:46:53;;;;;;;7.55;2.25;;;;;;;-142.64;100.00;58178.75;5052216;28;20036;-61
2022/06/10 07:49:19;;;;;;;9.68;2.08;;;;;;;-142.64;100.00;58178.75;5050843;28;20610;-59
2022/06/10 07:51:45;;;;;;;10.82;2.70;;;;;;;-142.64;100.00;58178.75;5052034;28;20124;-60
2022/06/10 07:54:11;;;;;;;7.78;2.30;;;;;;;-142.64;100.00;58178.75;5052045;28;20064;-60
2022/06/10 07:56:37;;;;;;;9.68;2.40;;;;;;;-142.64;100.00;58178.75;5052211;28;20063;-58
2022/06/10 07:59:03;;;;;;;6.25;1.65;;;;;;;-142.64;100.00;58178.75;5052065;28;20475;-59
2022/06/10 08:01:29;;;;;;;9.77;2.72;;;;;;;-142.64;100.00;58178.75;5052125;28;20037;-59
2022/06/10 08:03:55;;;;;;;9.50;2.30;;;;;;;-142.64;100.00;58178.75;5049440;28;20391;-61
2022/06/10 08:06:23;;;;;;;7.93;1.92;;;;;;;-142.64;100.00;58178.75;5051297;28;20040;-59
2022/06/10 08:08:49;;;;;;;6.85;2.00;;;;;;;-142.64;100.00;58178.75;5051032;28;20140;-61
2022/06/10 08:11:14;;;;;;;6.80;2.15;;;;;;;-142.64;100.00;58178.75;5051138;28;20123;-57
2022/06/10 08:13:40;;;;;;;7.43;2.30;;;;;;;-142.64;100.00;58178.75;5049675;28;20115;-58
2022/06/10 08:16:05;;;;;;;9.63;2.28;;;;;;;-142.64;100.00;58178.75;5051015;28;20044;-59
2022/06/10 08:18:34;;;;;;;8.20;2.40;;;;;;;-142.64;100.00;58178.75;5050754;28;20044;-61
2022/06/10 08:23:45;;;;;;;3.80;2.08;;;;;;;-142.64;100.00;58178.75;5051052;28;20055;-58
2022/06/10 08:26:10;;;;;;;5.30;2.03;;;;;;;-142.64;100.00;58178.75;5049973;28;20037;-60
2022/06/10 08:28:38;;;;;;;4.97;1.95;;;;;;;-142.64;100.00;58178.75;5049398;28;20033;-59
2022/06/10 08:31:03;;;;;;;7.63;2.63;;;;;;;-142.64;100.00;58178.75;5051079;28;20033;-58
2022/06/10 08:33:29;;;;;;;7.07;2.47;;;;;;;-142.64;100.00;58178.75;5051518;28;20032;-59
2022/06/10 08:35:54;;;;;;;6.78;2.28;;;;;;;-142.64;100.00;58178.75;5051443;28;20116;-58
2022/06/10 08:38:20;;;;;;;7.70;2.72;;;;;;;-142.64;100.00;58178.75;5050907;28;20037;-59
2022/06/10 08:40:59;;;;;;;6.30;2.00;;;;;;;-142.64;100.00;58178.75;5051953;28;20037;-61
2022/06/10 08:43:56;;;;;;;7.45;2.58;;;;;;;-142.64;100.00;58178.75;5051692;28;20384;-59
2022/06/10 08:46:34;;;;;;;9.43;2.85;;;;;;;-142.64;100.00;58178.75;5051126;28;20131;-60
2022/06/10 08:49:19;;;;;;;10.32;3.08;;;;;;;-142.64;100.00;58178.75;5051528;28;20041;-58
2022/06/10 08:52:05;;;;;;;6.03;2.80;;;;;;;-142.64;100.00;58178.75;5053264;28;20491;-58
2022/06/10 08:54:36;;;;;;;10.05;2.92;;;;;;;-142.64;100.00;58178.75;5055108;28;20107;-56
2022/06/10 08:57:19;;;;;;;7.47;2.80;;;;;;;-142.64;100.00;58178.75;5055256;28;20025;-59
2022/06/10 08:59:47;;;;;;;10.10;2.75;;;;;;;-142.64;100.00;58178.75;5053988;28;20415;-57
2022/06/10 09:02:19;;;;;;;9.38;3.10;;;;;;;-142.64;100.00;58178.75;5053920;28;20044;-58
2022/06/10 09:04:55;;;;;;;7.50;2.38;;;;;;;-142.64;100.00;58178.75;5054843;28;20806;-60
2022/06/10 09:07:32;;;;;;;5.80;2.17;;;;;;;-142.64;100.00;58178.75;5053987;28;20032;-60
2022/06/10 09:09:58;;;;;;;5.53;2.20;;;;;;;-142.64;100.00;58178.75;5054975;28;20049;-60
2022/06/10 09:12:47;;;;;;;4.18;2.00;;;;;;;-142.64;100.00;58178.75;5053775;28;20033;-59
2022/06/10 09:15:13;;;;;;;7.15;2.10;;;;;;;-142.64;100.00;58178.75;5051515;28;20044;-59
2022/06/10 09:17:43;;;;;;;5.85;2.00;;;;;;;-142.64;100.00;58178.75;5053463;28;20041;-58
2022/06/10 09:20:23;;;;;;;4.35;1.90;;;;;;;-142.64;100.00;58178.75;5053764;28;20029;-59
2022/06/10 09:22:54;;;;;;;6.07;2.67;;;;;;;-142.64;100.00;58178.75;5053429;28;20388;-59
2022/06/10 09:25:34;;;;;;;7.38;2.40;;;;;;;-142.64;100.00;58178.75;5055028;28;20033;-60
2022/06/10 09:28:00;;;;;;;5.72;2.67;;;;;;;-142.64;100.00;58178.75;5053312;28;20153;-56
2022/06/10 09:30:38;;;;;;;5.32;1.60;;;;;;;-142.64;100.00;58178.75;5054743;28;20155;-59
2022/06/10 09:33:11;;;;;;;4.78;2.25;;;;;;;-142.64;100.00;58178.75;5054469;28;20553;-59
2022/06/10 09:35:40;;;;;;;4.85;2.58;;;;;;;-142.64;100.00;58178.75;5054477;28;20029;-59
2022/06/10 09:38:23;;;;;;;5.75;1.70;;;;;;;-142.64;100.00;58178.75;5053185;28;20361;-57
2022/06/10 09:40:54;;;;;;;6.25;1.80;;;;;;;-142.64;100.00;58178.75;5054594;28;20033;-56
2022/06/10 09:44:01;;;;;;;4.45;1.75;;;;;;;-142.64;100.00;58178.75;5054439;28;20025;-58
2022/06/10 09:46:44;;;;;;;4.10;1.90;;;;;;;-142.64;100.00;58178.75;5050651;28;20163;-58
2022/06/10 09:49:39;;;;;;;5.05;1.70;;;;;;;-142.64;100.00;58178.75;5053978;28;20495;-58
2022/06/10 09:52:15;;;;;;;5.43;2.08;;;;;;;-142.64;100.00;58178.75;5053018;28;20094;-57
2022/06/10 09:55:08;;;;;;;3.97;1.52;;;;;;;-142.64;100.00;58178.75;5052906;28;20438;-57
2022/06/10 09:57:46;;;;;;;3.65;1.50;;;;;;;-142.64;100.00;58178.75;5054235;28;20040;-57
2022/06/10 10:00:34;;;;;;;4.72;1.38;;;;;;;-142.64;100.00;58178.75;5054423;28;20028;-59
2022/06/10 10:03:33;;;;;;;4.07;1.40;;;;;;;-142.64;100.00;58178.75;5034792;28;20086;-55
2022/06/10 10:06:04;;;;;;;3.08;1.20;;;;;;;-142.64;100.00;58178.75;5052577;28;20041;-57
2022/06/10 10:08:39;;;;;;;3.75;1.40;;;;;;;-142.64;100.00;58178.75;5052771;28;20049;-58
2022/06/10 10:11:13;;;;;;;3.10;1.40;;;;;;;-142.64;100.00;58178.75;5035154;28;20049;-58
2022/06/10 10:14:06;;;;;;;4.65;1.75;;;;;;;-142.64;100.00;58178.75;5051783;28;20044;-60
2022/06/10 10:17:02;;;;;;;4.25;1.48;;;;;;;-142.64;100.00;58178.75;5052914;28;20029;-58
2022/06/10 10:19:34;;;;;;;4.00;1.55;;;;;;;-142.64;100.00;58178.75;5052946;28;20040;-55
2022/06/10 10:22:49;;;;;;;3.22;1.20;;;;;;;-142.64;100.00;58178.75;5051712;28;20033;-57
2022/06/10 10:25:18;;;;;;;6.32;1.38;;;;;;;-142.64;100.00;58178.75;5030796;28;20067;-58
2022/06/10 10:27:45;;;;;;;4.93;1.70;;;;;;;-142.64;100.00;58178.75;5052903;28;20033;-58
2022/06/10 10:30:16;;;;;;;5.38;1.70;;;;;;;-142.64;100.00;58178.75;5051335;28;20047;-59
2022/06/10 10:32:49;;;;;;;5.32;1.70;;;;;;;-142.64;100.00;58178.75;5052912;28;20545;-60
2022/06/10 10:35:28;;;;;;;12.27;2.40;;;;;;;-142.64;100.00;58178.75;5035037;28;20388;-58
2022/06/10 10:37:59;;;;;;;3.85;1.50;;;;;;;-142.64;100.00;58178.75;5034943;28;20033;-60
2022/06/10 10:40:40;;;;;;;4.53;1.90;;;;;;;-142.64;100.00;58178.75;5051602;28;20488;-60
2022/06/10 10:43:07;;;;;;;;;;;;;;;-142.64;100.00;58178.75;5051705;28;20383;-61
2022/06/10 10:45:36;;;;;;;4.80;1.88;;;;;;;-142.64;100.00;58178.75;5051187;28;19967;-56
2022/06/10 10:48:25;;;;;;;4.97;1.73;;;;;;;-142.64;100.00;58178.75;5051222;28;20507;-57
2022/06/10 10:51:21;;;;;;;3.20;1.73;;;;;;;-142.64;100.00;58178.75;5052891;28;20029;-60
2022/06/10 10:53:54;;;;;;;5.13;1.77;;;;;;;-142.64;100.00;58178.75;5043157;28;20484;-57
2022/06/10 10:56:32;;;;;;;4.80;2.40;;;;;;;-142.64;100.00;58178.75;5052998;28;20074;-59
2022/06/10 10:58:57;;;;;;;3.97;1.75;;;;;;;-142.64;100.00;58178.75;5053288;28;20035;-58
2022/06/10 11:01:54;;;;;;;5.20;1.80;;;;;;;-142.64;100.00;58178.75;5052748;28;20403;-57
2022/06/10 11:04:34;;;;;;;4.07;1.67;;;;;;;-142.64;100.00;58178.75;5047570;28;20123;-58
2022/06/10 11:06:59;;;;;;;4.68;1.90;;;;;;;-142.64;100.00;58178.75;5051478;28;20029;-59
2022/06/10 11:09:26;;;;;;;5.43;1.83;;;;;;;-142.64;100.00;58178.75;5052359;28;20458;-57
2022/06/10 11:11:52;;;;;;;6.40;1.90;;;;;;;-142.64;100.00;58178.75;5052596;28;20037;-59
2022/06/10 11:14:19;;;;;;;4.65;1.50;;;;;;;-142.64;100.00;58178.75;5051287;28;20029;-61
2022/06/10 11:17:11;;;;;;;4.68;1.50;;;;;;;-142.64;100.00;58178.75;5052574;28;20095;-59
2022/06/10 11:19:37;;;;;;;3.88;1.98;;;;;;;-142.64;100.00;58178.75;5050019;28;20098;-58
2022/06/10 11:22:02;;;;;;;3.92;1.70;;;;;;;-142.64;100.00;58178.75;5052590;28;20032;-56
2022/06/10 11:24:37;;;;;;;4.22;1.60;;;;;;;-142.64;100.00;58178.75;5052518;28;20029;-59
2022/06/10 11:27:19;;;;;;;5.68;1.60;;;;;;;-142.64;100.00;58178.75;5051394;28;20037;-57
2022/06/10 11:29:57;;;;;;;4.80;1.80;;;;;;;-142.64;100.00;58178.75;5052374;28;20531;-61
2022/06/10 11:32:25;;;;;;;5.93;2.05;;;;;;;-142.64;100.00;58178.75;5052332;28;20033;-60
2022/06/10 11:35:00;;;;;;;4.72;1.65;;;;;;;-142.64;100.00;58178.75;5052184;28;20029;-57
2022/06/10 11:37:36;;;;;;;4.70;1.73;;;;;;;-142.64;100.00;58178.75;5051298;28;20048;-60